Date,TemperatureHighF,TemperatureAvgF,TemperatureLowF,DewpointHighF,DewpointAvgF,DewpointLowF,HumidityHigh,HumidityAvg,HumidityLow,PressureMaxIn,PressureMinIn,WindSpeedMaxMPH,WindSpeedAvgMPH,GustSpeedMaxMPH,PrecipitationSumIn
2013-11-1,71,61,46,61,49,43,96,67,37,29.68,29.48,11,2,15,0.24
2013-11-2,57,49,39,48,41,37,97,74,51,29.91,29.66,5,1,11,0.00
2013-11-3,55,45,30,40,29,18,88,58,25,30.45,29.92,4,1,6,0.00
2013-11-4,43,36,24,27,23,18,94,62,39,30.65,30.45,3,1,6,0.00
2013-11-5,52,44,29,41,31,22,88,62,38,30.62,30.42,3,1,6,0.00
2013-11-6,70,57,40,51,46,39,95,69,47,30.43,29.98,6,1,11,0.00
2013-11-7,58,50,40,52,42,22,97,74,47,30.11,29.85,5,1,13,0.13
2013-11-8,47,36,28,29,25,22,88,68,39,30.34,30.10,9,1,16,0.00
2013-11-9,58,41,24,32,27,23,93,63,29,30.34,30.03,4,1,10,0.00
2013-11-10,55,46,32,35,29,25,88,53,38,30.26,30.00,8,2,16,0.00
2013-11-11,58,44,28,37,32,25,92,64,35,30.31,30.02,2,0,4,0.00
2013-11-12,51,35,28,35,23,13,78,60,42,30.45,30.01,6,1,11,0.00
2013-11-13,40,32,24,21,18,17,81,59,39,30.53,30.40,12,2,12,0.00
2013-11-14,57,37,19,25,17,6,87,53,15,30.40,30.24,9,1,9,0.00
2013-11-15,60,41,21,36,24,13,90,56,16,30.30,30.17,5,1,5,0.00
2013-11-16,62,52,35,48,45,34,97,79,59,30.30,30.17,9,1,9,0.02
2013-11-17,64,58,46,57,52,45,97,82,68,30.17,29.63,17,2,17,0.04
2013-11-18,64,55,46,58,31,25,86,42,26,29.97,29.64,16,4,16,0.08
2013-11-19,45,38,27,26,24,23,87,58,43,30.41,29.97,10,2,13,0.00
2013-11-20,45,32,21,26,21,16,92,68,31,30.58,30.41,5,1,7,0.00
2013-11-21,50,35,24,37,29,-100,89,79,59,30.57,30.36,2,-2,5,0.00
2013-11-22,54,47,38,49,42,35,93,83,70,30.36,30.04,4,1,8,0.00
2013-11-23,46,37,25,38,24,13,84,61,43,30.28,30.09,8,3,13,0.00
2013-11-24,27,22,16,18,7,3,84,53,36,30.56,30.28,11,2,15,0.00
2013-11-25,38,25,12,17,10,4,86,57,24,30.57,30.30,4,0,10,0.00
2013-11-26,34,32,30,32,28,15,97,86,53,30.30,29.69,6,1,8,1.05
2013-11-27,37,32,25,34,25,13,97,77,57,30.10,29.63,9,2,16,0.06
2013-11-28,33,28,24,22,17,12,82,65,53,30.48,30.09,9,2,14,0.00
2013-11-29,38,30,20,26,22,18,92,74,52,30.73,30.48,3,1,7,0.00
2013-11-30,34,27,15,23,20,13,92,76,60,30.73,30.36,6,1,8,0.00